AFR26VQ LFML-LFPG
Flight info
| Callsign | AFR26VQ |
|---|---|
| Flight time | 1h 20m |
| Altitude | 36000 |
| Route | ETREK DCT RUSIT DCT BULOL DCT LOGNI DCT MOKIP DCT ARFOZ DCT TINIL |
| Aircraft | A321/M-SDE3FGHIRWY/LB1 |
Departure
| Time | 2026-05-05 14:20 |
|---|---|
| Airport | Marseille Provence Airport (LFML) |
Arrival
| Time | 2026-05-05 15:40 |
|---|---|
| Airport | Charles de Gaulle International Airport (LFPG) |
| Time | Latitude | Longitude | Altitude | Speed | Heading |
|---|---|---|---|---|---|
| 2026-05-05 13:49 | 43.43848 | 5.22480 | 52 ft | 0 kts | 310° |
| 2026-05-05 14:07 | 43.43848 | 5.22479 | 52 ft | 0 kts | 310° |
| 2026-05-05 14:07 | 43.43849 | 5.22478 | 52 ft | 0 kts | 310° |
| 2026-05-05 14:08 | 43.43850 | 5.22477 | 52 ft | 0 kts | 309° |
| 2026-05-05 14:08 | 43.43843 | 5.22487 | 52 ft | 2 kts | 310° |
| 2026-05-05 14:08 | 43.43834 | 5.22503 | 52 ft | 2 kts | 310° |
| 2026-05-05 14:08 | 43.43827 | 5.22521 | 53 ft | 2 kts | 270° |
| 2026-05-05 14:09 | 43.43830 | 5.22540 | 53 ft | 2 kts | 232° |
| 2026-05-05 14:09 | 43.43843 | 5.22553 | 53 ft | 2 kts | 194° |
| 2026-05-05 14:09 | 43.43858 | 5.22552 | 52 ft | 2 kts | 159° |
| 2026-05-05 14:09 | 43.43872 | 5.22546 | 52 ft | 2 kts | 165° |
| 2026-05-05 14:10 | 43.43884 | 5.22541 | 52 ft | 0 kts | 163° |
| 2026-05-05 14:12 | 43.43882 | 5.22543 | 52 ft | 1 kts | 163° |
| 2026-05-05 14:13 | 43.43866 | 5.22549 | 52 ft | 4 kts | 167° |
| 2026-05-05 14:13 | 43.43823 | 5.22541 | 53 ft | 8 kts | 203° |
| 2026-05-05 14:13 | 43.43773 | 5.22495 | 53 ft | 8 kts | 233° |
| 2026-05-05 14:13 | 43.43749 | 5.22407 | 53 ft | 11 kts | 253° |
| 2026-05-05 14:14 | 43.43731 | 5.22296 | 51 ft | 13 kts | 278° |
| 2026-05-05 14:14 | 43.43716 | 5.22170 | 50 ft | 14 kts | 227° |
| 2026-05-05 14:14 | 43.43718 | 5.22047 | 48 ft | 16 kts | 322° |
| 2026-05-05 14:14 | 43.43816 | 5.21938 | 45 ft | 19 kts | 313° |
| 2026-05-05 14:15 | 43.43915 | 5.21794 | 41 ft | 21 kts | 313° |
| 2026-05-05 14:15 | 43.43967 | 5.21622 | 38 ft | 20 kts | 234° |
| 2026-05-05 14:15 | 43.43941 | 5.21456 | 36 ft | 20 kts | 309° |
| 2026-05-05 14:15 | 43.44044 | 5.21308 | 32 ft | 21 kts | 314° |
| 2026-05-05 14:16 | 43.44153 | 5.21151 | 29 ft | 23 kts | 314° |
| 2026-05-05 14:16 | 43.44262 | 5.20987 | 26 ft | 23 kts | 304° |
| 2026-05-05 14:16 | 43.44355 | 5.20797 | 24 ft | 24 kts | 312° |
| 2026-05-05 14:16 | 43.44470 | 5.20631 | 22 ft | 24 kts | 314° |
| 2026-05-05 14:17 | 43.44587 | 5.20466 | 21 ft | 23 kts | 313° |
| 2026-05-05 14:17 | 43.44700 | 5.20304 | 21 ft | 23 kts | 313° |
| 2026-05-05 14:17 | 43.44812 | 5.20143 | 21 ft | 22 kts | 313° |
| 2026-05-05 14:17 | 43.44914 | 5.19999 | 21 ft | 18 kts | 314° |
| 2026-05-05 14:18 | 43.44968 | 5.19922 | 21 ft | 9 kts | 312° |
| 2026-05-05 14:18 | 43.44969 | 5.19844 | 20 ft | 9 kts | 221° |
| 2026-05-05 14:18 | 43.44902 | 5.19816 | 21 ft | 10 kts | 193° |
| 2026-05-05 14:18 | 43.44836 | 5.19838 | 21 ft | 10 kts | 141° |
| 2026-05-05 14:19 | 43.44809 | 5.19880 | 20 ft | 6 kts | 131° |
| 2026-05-05 14:19 | 43.44739 | 5.19980 | 20 ft | 38 kts | 134° |
| 2026-05-05 14:19 | 43.44378 | 5.20496 | 22 ft | 109 kts | 134° |
| 2026-05-05 14:19 | 43.43701 | 5.21465 | 58 ft | 164 kts | 135° |
| 2026-05-05 14:20 | 43.42891 | 5.22595 | 592 ft | 169 kts | 137° |
| 2026-05-05 14:20 | 43.42256 | 5.23923 | 1278 ft | 172 kts | 112° |
| 2026-05-05 14:20 | 43.41923 | 5.25473 | 1960 ft | 168 kts | 109° |
| 2026-05-05 14:20 | 43.41625 | 5.27056 | 2300 ft | 179 kts | 107° |
| 2026-05-05 14:21 | 43.41244 | 5.28744 | 2590 ft | 192 kts | 113° |
| 2026-05-05 14:21 | 43.40608 | 5.30446 | 2905 ft | 206 kts | 124° |
| 2026-05-05 14:21 | 43.39941 | 5.32264 | 3130 ft | 229 kts | 102° |
| 2026-05-05 14:21 | 43.40171 | 5.34470 | 3512 ft | 245 kts | 61° |
| 2026-05-05 14:22 | 43.41408 | 5.36063 | 4124 ft | 250 kts | 22° |
| 2026-05-05 14:22 | 43.43092 | 5.36324 | 4743 ft | 250 kts | 344° |
| 2026-05-05 14:22 | 43.44590 | 5.35223 | 5388 ft | 247 kts | 316° |
| 2026-05-05 14:22 | 43.45882 | 5.33657 | 6041 ft | 250 kts | 316° |
| 2026-05-05 14:23 | 43.47261 | 5.32150 | 6714 ft | 255 kts | 320° |
| 2026-05-05 14:23 | 43.48720 | 5.30792 | 7405 ft | 258 kts | 324° |
| 2026-05-05 14:23 | 43.50250 | 5.29527 | 8098 ft | 261 kts | 326° |
| 2026-05-05 14:23 | 43.51841 | 5.28293 | 8794 ft | 264 kts | 327° |
| 2026-05-05 14:24 | 43.53446 | 5.27086 | 9475 ft | 266 kts | 327° |
| 2026-05-05 14:24 | 43.55074 | 5.25877 | 10136 ft | 269 kts | 327° |
| 2026-05-05 14:24 | 43.56724 | 5.24654 | 10778 ft | 272 kts | 327° |
| 2026-05-05 14:24 | 43.58438 | 5.23504 | 11419 ft | 276 kts | 333° |
| 2026-05-05 14:25 | 43.60263 | 5.22567 | 11873 ft | 288 kts | 336° |
| 2026-05-05 14:25 | 43.62215 | 5.21679 | 12171 ft | 305 kts | 338° |
| 2026-05-05 14:25 | 43.64294 | 5.20758 | 12464 ft | 321 kts | 338° |
| 2026-05-05 14:25 | 43.66449 | 5.19800 | 12757 ft | 336 kts | 338° |
| 2026-05-05 14:26 | 43.68745 | 5.18774 | 13045 ft | 351 kts | 338° |
| 2026-05-05 14:26 | 43.71095 | 5.17718 | 13387 ft | 364 kts | 338° |
| 2026-05-05 14:26 | 43.73522 | 5.16594 | 13939 ft | 368 kts | 337° |
| 2026-05-05 14:26 | 43.75937 | 5.15452 | 14567 ft | 370 kts | 337° |
| 2026-05-05 14:27 | 43.78360 | 5.14298 | 15117 ft | 374 kts | 337° |
| 2026-05-05 14:27 | 43.80838 | 5.13121 | 15682 ft | 378 kts | 337° |
| 2026-05-05 14:27 | 43.83319 | 5.11942 | 16224 ft | 381 kts | 337° |
| 2026-05-05 14:27 | 43.85831 | 5.10755 | 16777 ft | 385 kts | 338° |
| 2026-05-05 14:28 | 43.88411 | 5.09718 | 17321 ft | 389 kts | 342° |
| 2026-05-05 14:28 | 43.91098 | 5.08908 | 17839 ft | 394 kts | 346° |
| 2026-05-05 14:28 | 43.93804 | 5.08264 | 18368 ft | 397 kts | 347° |
| 2026-05-05 14:28 | 43.96507 | 5.07658 | 18826 ft | 401 kts | 347° |
| 2026-05-05 14:29 | 43.99283 | 5.07040 | 19334 ft | 404 kts | 347° |
| 2026-05-05 14:29 | 44.02062 | 5.06416 | 19945 ft | 403 kts | 347° |
| 2026-05-05 14:29 | 44.04803 | 5.05796 | 20527 ft | 404 kts | 346° |
| 2026-05-05 14:29 | 44.07576 | 5.05165 | 20998 ft | 407 kts | 346° |
| 2026-05-05 14:30 | 44.10376 | 5.04523 | 21462 ft | 410 kts | 346° |
| 2026-05-05 14:30 | 44.13221 | 5.03870 | 21928 ft | 413 kts | 345° |
| 2026-05-05 14:30 | 44.16064 | 5.03215 | 22374 ft | 416 kts | 345° |
| 2026-05-05 14:30 | 44.18957 | 5.02548 | 22811 ft | 419 kts | 345° |
| 2026-05-05 14:31 | 44.21822 | 5.01886 | 23232 ft | 422 kts | 345° |
| 2026-05-05 14:31 | 44.24735 | 5.01213 | 23622 ft | 426 kts | 345° |
| 2026-05-05 14:31 | 44.27632 | 5.00543 | 24049 ft | 428 kts | 344° |
| 2026-05-05 14:31 | 44.30585 | 4.99859 | 24456 ft | 431 kts | 345° |
| 2026-05-05 14:32 | 44.33562 | 4.99169 | 24846 ft | 434 kts | 344° |
| 2026-05-05 14:32 | 44.36554 | 4.98475 | 25250 ft | 436 kts | 344° |
| 2026-05-05 14:32 | 44.39550 | 4.97780 | 25603 ft | 439 kts | 344° |
| 2026-05-05 14:32 | 44.42575 | 4.97077 | 25959 ft | 442 kts | 344° |
| 2026-05-05 14:33 | 44.45604 | 4.96374 | 26323 ft | 444 kts | 343° |
| 2026-05-05 14:33 | 44.48671 | 4.95658 | 26674 ft | 447 kts | 344° |
| 2026-05-05 14:33 | 44.51761 | 4.94937 | 27028 ft | 449 kts | 344° |
| 2026-05-05 14:33 | 44.54822 | 4.94222 | 27366 ft | 451 kts | 344° |
| 2026-05-05 14:34 | 44.57926 | 4.93498 | 27687 ft | 454 kts | 343° |
| 2026-05-05 14:34 | 44.61048 | 4.92767 | 27992 ft | 457 kts | 343° |
| 2026-05-05 14:34 | 44.64184 | 4.92033 | 28306 ft | 459 kts | 343° |
| 2026-05-05 14:34 | 44.67300 | 4.91302 | 28644 ft | 460 kts | 343° |
| 2026-05-05 14:35 | 44.70425 | 4.90423 | 28916 ft | 460 kts | 339° |
| 2026-05-05 14:35 | 44.73528 | 4.89273 | 29224 ft | 457 kts | 336° |
| 2026-05-05 14:35 | 44.76553 | 4.87856 | 29423 ft | 458 kts | 332° |
| 2026-05-05 14:35 | 44.79523 | 4.86317 | 29711 ft | 463 kts | 336° |
| 2026-05-05 14:36 | 44.82802 | 4.85700 | 29994 ft | 481 kts | 355° |
| 2026-05-05 14:36 | 44.86142 | 4.85993 | 30351 ft | 484 kts | 359° |
| 2026-05-05 14:36 | 44.89505 | 4.86391 | 30616 ft | 486 kts | 359° |
| 2026-05-05 14:36 | 44.92885 | 4.86778 | 30954 ft | 485 kts | 359° |
| 2026-05-05 14:37 | 44.96260 | 4.87129 | 31286 ft | 483 kts | 358° |
| 2026-05-05 14:37 | 44.99566 | 4.87444 | 31614 ft | 482 kts | 358° |
| 2026-05-05 14:37 | 45.02919 | 4.87743 | 31935 ft | 481 kts | 358° |
| 2026-05-05 14:37 | 45.06292 | 4.88032 | 32227 ft | 481 kts | 358° |
| 2026-05-05 14:38 | 45.09634 | 4.88311 | 32543 ft | 479 kts | 358° |
| 2026-05-05 14:38 | 45.12901 | 4.88587 | 32858 ft | 478 kts | 358° |
| 2026-05-05 14:38 | 45.16279 | 4.88869 | 33144 ft | 477 kts | 358° |
| 2026-05-05 14:38 | 45.19540 | 4.89140 | 33392 ft | 476 kts | 358° |
| 2026-05-05 14:39 | 45.22871 | 4.89418 | 33640 ft | 476 kts | 358° |
| 2026-05-05 14:39 | 45.26153 | 4.89690 | 33874 ft | 476 kts | 358° |
| 2026-05-05 14:39 | 45.29445 | 4.89961 | 34104 ft | 475 kts | 358° |
| 2026-05-05 14:39 | 45.32755 | 4.90238 | 34319 ft | 475 kts | 358° |
| 2026-05-05 14:40 | 45.36024 | 4.90510 | 34508 ft | 476 kts | 359° |
| 2026-05-05 14:40 | 45.39315 | 4.90783 | 34700 ft | 476 kts | 359° |
| 2026-05-05 14:40 | 45.42640 | 4.91058 | 34889 ft | 476 kts | 359° |
| 2026-05-05 14:40 | 45.45923 | 4.91333 | 35084 ft | 476 kts | 359° |
| 2026-05-05 14:41 | 45.49211 | 4.91609 | 35275 ft | 476 kts | 359° |
| 2026-05-05 14:41 | 45.52550 | 4.91889 | 35454 ft | 476 kts | 359° |
| 2026-05-05 14:41 | 45.55828 | 4.92157 | 35608 ft | 477 kts | 359° |
| 2026-05-05 14:41 | 45.59137 | 4.92433 | 35791 ft | 476 kts | 359° |
| 2026-05-05 14:42 | 45.65757 | 4.92987 | 35851 ft | 477 kts | 360° |
| 2026-05-05 14:42 | 45.72400 | 4.93546 | 35858 ft | 476 kts | 360° |
| 2026-05-05 14:43 | 45.78975 | 4.94102 | 35853 ft | 476 kts | 0° |
| 2026-05-05 14:43 | 45.85626 | 4.94662 | 35853 ft | 485 kts | 0° |
| 2026-05-05 14:44 | 45.92388 | 4.95235 | 35847 ft | 487 kts | 0° |
| 2026-05-05 14:44 | 45.99140 | 4.95812 | 35835 ft | 487 kts | 1° |
| 2026-05-05 14:45 | 46.05895 | 4.96391 | 35840 ft | 487 kts | 0° |
| 2026-05-05 14:45 | 46.12627 | 4.96966 | 35842 ft | 487 kts | 1° |
| 2026-05-05 14:46 | 46.19392 | 4.97544 | 35842 ft | 491 kts | 1° |
| 2026-05-05 14:46 | 46.26226 | 4.98131 | 35845 ft | 493 kts | 1° |
| 2026-05-05 14:47 | 46.33028 | 4.98716 | 35842 ft | 492 kts | 1° |
| 2026-05-05 14:47 | 46.39890 | 4.99310 | 35847 ft | 491 kts | 1° |
| 2026-05-05 14:48 | 46.46675 | 4.99897 | 35850 ft | 490 kts | 1° |
| 2026-05-05 14:48 | 46.53466 | 5.00486 | 35851 ft | 490 kts | 1° |
| 2026-05-05 14:49 | 46.60223 | 5.01074 | 35854 ft | 490 kts | 1° |
| 2026-05-05 14:49 | 46.67038 | 5.01669 | 35852 ft | 490 kts | 1° |
| 2026-05-05 14:50 | 46.73825 | 5.02263 | 35859 ft | 490 kts | 2° |
| 2026-05-05 14:50 | 46.80587 | 5.02855 | 35857 ft | 490 kts | 2° |
| 2026-05-05 14:51 | 46.87409 | 5.03454 | 35862 ft | 488 kts | 2° |
| 2026-05-05 14:51 | 46.94143 | 5.04047 | 35865 ft | 488 kts | 2° |
| 2026-05-05 14:52 | 47.00886 | 5.04643 | 35860 ft | 487 kts | 2° |
| 2026-05-05 14:52 | 47.07619 | 5.05237 | 35860 ft | 487 kts | 2° |
| 2026-05-05 14:53 | 47.14355 | 5.05836 | 35863 ft | 486 kts | 2° |
| 2026-05-05 14:53 | 47.21089 | 5.06435 | 35863 ft | 487 kts | 2° |
| 2026-05-05 14:54 | 47.27846 | 5.07038 | 35858 ft | 486 kts | 2° |
| 2026-05-05 14:54 | 47.34594 | 5.07640 | 35855 ft | 486 kts | 2° |
| 2026-05-05 14:55 | 47.41309 | 5.08242 | 35699 ft | 485 kts | 3° |
| 2026-05-05 14:55 | 47.44681 | 5.08544 | 35456 ft | 479 kts | 3° |
| 2026-05-05 14:55 | 47.47993 | 5.08840 | 34928 ft | 478 kts | 3° |
| 2026-05-05 14:56 | 47.51278 | 5.09129 | 34281 ft | 479 kts | 2° |
| 2026-05-05 14:56 | 47.54623 | 5.08983 | 33680 ft | 480 kts | 353° |
| 2026-05-05 14:56 | 47.57863 | 5.08028 | 33044 ft | 480 kts | 343° |
| 2026-05-05 14:56 | 47.60971 | 5.06271 | 32363 ft | 479 kts | 333° |
| 2026-05-05 14:57 | 47.63845 | 5.03755 | 31637 ft | 480 kts | 323° |
| 2026-05-05 14:57 | 47.66454 | 5.00666 | 30881 ft | 482 kts | 319° |
| 2026-05-05 14:57 | 47.68953 | 4.97447 | 29959 ft | 484 kts | 318° |
| 2026-05-05 14:57 | 47.71470 | 4.94180 | 29253 ft | 480 kts | 318° |
| 2026-05-05 14:58 | 47.73972 | 4.90974 | 28710 ft | 473 kts | 319° |
| 2026-05-05 14:58 | 47.76485 | 4.87788 | 28124 ft | 468 kts | 319° |
| 2026-05-05 14:58 | 47.78937 | 4.84684 | 27754 ft | 456 kts | 319° |
| 2026-05-05 14:58 | 47.81316 | 4.81669 | 27782 ft | 446 kts | 319° |
| 2026-05-05 14:59 | 47.83670 | 4.78680 | 27805 ft | 446 kts | 319° |
| 2026-05-05 14:59 | 47.86012 | 4.75701 | 27809 ft | 446 kts | 319° |
| 2026-05-05 14:59 | 47.88372 | 4.72694 | 27811 ft | 446 kts | 319° |
| 2026-05-05 14:59 | 47.90709 | 4.69713 | 27810 ft | 447 kts | 320° |
| 2026-05-05 15:00 | 47.93083 | 4.66681 | 27805 ft | 447 kts | 320° |
| 2026-05-05 15:00 | 47.94660 | 4.64666 | 27801 ft | 447 kts | 320° |
| 2026-05-05 15:00 | 47.97778 | 4.60673 | 27784 ft | 447 kts | 320° |
| 2026-05-05 15:00 | 48.00138 | 4.57649 | 27698 ft | 447 kts | 320° |
| 2026-05-05 15:01 | 48.02506 | 4.54612 | 27103 ft | 446 kts | 320° |
| 2026-05-05 15:01 | 48.04826 | 4.51630 | 26553 ft | 441 kts | 320° |
| 2026-05-05 15:01 | 48.07156 | 4.48633 | 26052 ft | 436 kts | 320° |
| 2026-05-05 15:01 | 48.09441 | 4.45687 | 25569 ft | 430 kts | 320° |
| 2026-05-05 15:02 | 48.11691 | 4.42781 | 25101 ft | 424 kts | 320° |
| 2026-05-05 15:02 | 48.13904 | 4.39923 | 24635 ft | 419 kts | 320° |
| 2026-05-05 15:02 | 48.16110 | 4.37071 | 24176 ft | 414 kts | 320° |
| 2026-05-05 15:02 | 48.18298 | 4.34238 | 23716 ft | 408 kts | 319° |
| 2026-05-05 15:03 | 48.20480 | 4.31412 | 23262 ft | 404 kts | 319° |
| 2026-05-05 15:03 | 48.22640 | 4.28612 | 22802 ft | 400 kts | 319° |
| 2026-05-05 15:03 | 48.24736 | 4.25840 | 22342 ft | 396 kts | 316° |
| 2026-05-05 15:03 | 48.26673 | 4.22968 | 21887 ft | 392 kts | 312° |
| 2026-05-05 15:04 | 48.28462 | 4.19935 | 21437 ft | 389 kts | 309° |
| 2026-05-05 15:04 | 48.30175 | 4.16824 | 20985 ft | 386 kts | 308° |
| 2026-05-05 15:04 | 48.31867 | 4.13713 | 20525 ft | 383 kts | 307° |
| 2026-05-05 15:04 | 48.33539 | 4.10640 | 20068 ft | 380 kts | 307° |
| 2026-05-05 15:05 | 48.36890 | 4.04512 | 19647 ft | 382 kts | 307° |
| 2026-05-05 15:05 | 48.38567 | 4.01443 | 19655 ft | 384 kts | 307° |
| 2026-05-05 15:05 | 48.40274 | 3.98317 | 19622 ft | 385 kts | 307° |
| 2026-05-05 15:06 | 48.41967 | 3.95214 | 19138 ft | 384 kts | 307° |
| 2026-05-05 15:06 | 48.43649 | 3.92130 | 18655 ft | 382 kts | 307° |
| 2026-05-05 15:06 | 48.45313 | 3.89073 | 18186 ft | 379 kts | 307° |
| 2026-05-05 15:06 | 48.46993 | 3.85978 | 17719 ft | 377 kts | 307° |
| 2026-05-05 15:07 | 48.48626 | 3.82961 | 17260 ft | 374 kts | 307° |
| 2026-05-05 15:07 | 48.50264 | 3.79930 | 16794 ft | 372 kts | 307° |
| 2026-05-05 15:07 | 48.51882 | 3.76934 | 16335 ft | 370 kts | 308° |
| 2026-05-05 15:07 | 48.53497 | 3.73903 | 15875 ft | 368 kts | 307° |
| 2026-05-05 15:08 | 48.54943 | 3.70800 | 15637 ft | 360 kts | 304° |
| 2026-05-05 15:08 | 48.56307 | 3.67656 | 15655 ft | 360 kts | 303° |
| 2026-05-05 15:08 | 48.57665 | 3.64489 | 15668 ft | 360 kts | 303° |
| 2026-05-05 15:08 | 48.59022 | 3.61321 | 15547 ft | 361 kts | 303° |
| 2026-05-05 15:09 | 48.60377 | 3.58152 | 15051 ft | 361 kts | 304° |
| 2026-05-05 15:09 | 48.61734 | 3.54987 | 14662 ft | 356 kts | 304° |
| 2026-05-05 15:09 | 48.63072 | 3.51864 | 14667 ft | 354 kts | 304° |
| 2026-05-05 15:09 | 48.64423 | 3.48711 | 14698 ft | 354 kts | 304° |
| 2026-05-05 15:10 | 48.65754 | 3.45601 | 14721 ft | 354 kts | 304° |
| 2026-05-05 15:10 | 48.67087 | 3.42481 | 14744 ft | 354 kts | 305° |
| 2026-05-05 15:10 | 48.68414 | 3.39375 | 14775 ft | 354 kts | 304° |
| 2026-05-05 15:10 | 48.69740 | 3.36262 | 14781 ft | 353 kts | 305° |
| 2026-05-05 15:11 | 48.71072 | 3.33128 | 14786 ft | 353 kts | 304° |
| 2026-05-05 15:11 | 48.72395 | 3.30015 | 14791 ft | 353 kts | 304° |
| 2026-05-05 15:11 | 48.73734 | 3.26861 | 14791 ft | 353 kts | 304° |
| 2026-05-05 15:11 | 48.75055 | 3.23744 | 14797 ft | 354 kts | 304° |
| 2026-05-05 15:12 | 48.76395 | 3.20582 | 14799 ft | 355 kts | 304° |
| 2026-05-05 15:12 | 48.77724 | 3.17441 | 14793 ft | 354 kts | 303° |
| 2026-05-05 15:12 | 48.79036 | 3.14333 | 14795 ft | 354 kts | 304° |
| 2026-05-05 15:12 | 48.80373 | 3.11164 | 14789 ft | 354 kts | 304° |
| 2026-05-05 15:13 | 48.81700 | 3.08011 | 14793 ft | 354 kts | 303° |
| 2026-05-05 15:13 | 48.83009 | 3.04899 | 14796 ft | 353 kts | 304° |
| 2026-05-05 15:13 | 48.84433 | 3.01796 | 14793 ft | 353 kts | 308° |
| 2026-05-05 15:13 | 48.85978 | 2.98916 | 14795 ft | 352 kts | 313° |
| 2026-05-05 15:14 | 48.87602 | 2.96188 | 14799 ft | 352 kts | 314° |
| 2026-05-05 15:14 | 48.89261 | 2.93448 | 14478 ft | 352 kts | 314° |
| 2026-05-05 15:14 | 48.90899 | 2.90740 | 14048 ft | 349 kts | 314° |
| 2026-05-05 15:14 | 48.92489 | 2.87982 | 13616 ft | 347 kts | 307° |
| 2026-05-05 15:15 | 48.93490 | 2.84639 | 13181 ft | 348 kts | 284° |
| 2026-05-05 15:15 | 48.93628 | 2.80998 | 12767 ft | 348 kts | 267° |
| 2026-05-05 15:15 | 48.93427 | 2.77341 | 12347 ft | 346 kts | 265° |
| 2026-05-05 15:15 | 48.93195 | 2.73708 | 11924 ft | 342 kts | 265° |
| 2026-05-05 15:16 | 48.92981 | 2.70215 | 11497 ft | 327 kts | 265° |
| 2026-05-05 15:16 | 48.92785 | 2.66834 | 11066 ft | 315 kts | 266° |
| 2026-05-05 15:16 | 48.92603 | 2.63590 | 10641 ft | 308 kts | 266° |
| 2026-05-05 15:16 | 48.92427 | 2.60387 | 10213 ft | 301 kts | 266° |
| 2026-05-05 15:17 | 48.92257 | 2.57260 | 9785 ft | 295 kts | 265° |
| 2026-05-05 15:17 | 48.92090 | 2.54200 | 9362 ft | 290 kts | 266° |
| 2026-05-05 15:17 | 48.91921 | 2.51175 | 8935 ft | 285 kts | 266° |
| 2026-05-05 15:17 | 48.91756 | 2.48195 | 8510 ft | 284 kts | 266° |
| 2026-05-05 15:18 | 48.91593 | 2.45220 | 8087 ft | 285 kts | 266° |
| 2026-05-05 15:18 | 48.91428 | 2.42238 | 7663 ft | 285 kts | 267° |
| 2026-05-05 15:18 | 48.91261 | 2.39221 | 7235 ft | 286 kts | 267° |
| 2026-05-05 15:18 | 48.91096 | 2.36245 | 6813 ft | 287 kts | 267° |
| 2026-05-05 15:19 | 48.90925 | 2.33214 | 6380 ft | 286 kts | 266° |
| 2026-05-05 15:19 | 48.90758 | 2.30279 | 5949 ft | 277 kts | 266° |
| 2026-05-05 15:19 | 48.90594 | 2.27413 | 5517 ft | 268 kts | 266° |
| 2026-05-05 15:19 | 48.90475 | 2.24632 | 5099 ft | 259 kts | 275° |
| 2026-05-05 15:20 | 48.91037 | 2.22210 | 4943 ft | 237 kts | 315° |
| 2026-05-05 15:20 | 48.92290 | 2.20839 | 4953 ft | 211 kts | 342° |
| 2026-05-05 15:20 | 48.93645 | 2.20401 | 4973 ft | 188 kts | 359° |
| 2026-05-05 15:20 | 48.94933 | 2.20331 | 5036 ft | 184 kts | 3° |
| 2026-05-05 15:21 | 48.96141 | 2.20758 | 4976 ft | 179 kts | 31° |
| 2026-05-05 15:21 | 48.96963 | 2.22151 | 4786 ft | 179 kts | 61° |
| 2026-05-05 15:21 | 48.97364 | 2.23944 | 4537 ft | 180 kts | 74° |
| 2026-05-05 15:21 | 48.97577 | 2.25810 | 4275 ft | 177 kts | 78° |
| 2026-05-05 15:22 | 48.97739 | 2.27603 | 4019 ft | 170 kts | 79° |
| 2026-05-05 15:22 | 48.97867 | 2.29357 | 3775 ft | 163 kts | 80° |
| 2026-05-05 15:22 | 48.97970 | 2.31037 | 3545 ft | 158 kts | 81° |
| 2026-05-05 15:22 | 48.98063 | 2.32706 | 3346 ft | 158 kts | 81° |
| 2026-05-05 15:23 | 48.98149 | 2.34348 | 3150 ft | 157 kts | 81° |
| 2026-05-05 15:23 | 48.98231 | 2.35990 | 2956 ft | 155 kts | 81° |
| 2026-05-05 15:23 | 48.98312 | 2.37621 | 2790 ft | 152 kts | 81° |
| 2026-05-05 15:23 | 48.98392 | 2.39223 | 2589 ft | 151 kts | 81° |
| 2026-05-05 15:24 | 48.98471 | 2.40803 | 2387 ft | 152 kts | 80° |
| 2026-05-05 15:24 | 48.98553 | 2.42399 | 2176 ft | 151 kts | 81° |
| 2026-05-05 15:24 | 48.98633 | 2.43987 | 1966 ft | 149 kts | 79° |
| 2026-05-05 15:24 | 48.98716 | 2.45584 | 1771 ft | 151 kts | 81° |
| 2026-05-05 15:25 | 48.98796 | 2.47174 | 1550 ft | 153 kts | 81° |
| 2026-05-05 15:25 | 48.98878 | 2.48769 | 1343 ft | 153 kts | 81° |
| 2026-05-05 15:25 | 48.98964 | 2.50386 | 1140 ft | 152 kts | 81° |
| 2026-05-05 15:25 | 48.99041 | 2.51952 | 935 ft | 148 kts | 81° |
| 2026-05-05 15:26 | 48.99120 | 2.53468 | 733 ft | 148 kts | 80° |
| 2026-05-05 15:26 | 48.99207 | 2.55024 | 570 ft | 152 kts | 81° |
| 2026-05-05 15:26 | 48.99294 | 2.56641 | 396 ft | 152 kts | 83° |
| 2026-05-05 15:26 | 48.99374 | 2.58171 | 334 ft | 136 kts | 81° |
| 2026-05-05 15:27 | 48.99465 | 2.59656 | 338 ft | 163 kts | 85° |
| 2026-05-05 15:27 | 48.99543 | 2.61383 | 1148 ft | 167 kts | 81° |
| 2026-05-05 15:27 | 48.99627 | 2.63068 | 2233 ft | 161 kts | 81° |
| 2026-05-05 15:27 | 48.99716 | 2.64740 | 2827 ft | 165 kts | 81° |
| 2026-05-05 15:28 | 48.99821 | 2.66566 | 3241 ft | 181 kts | 82° |
| 2026-05-05 15:28 | 48.99930 | 2.68556 | 3648 ft | 198 kts | 82° |
| 2026-05-05 15:28 | 48.99885 | 2.70742 | 4009 ft | 220 kts | 103° |
| 2026-05-05 15:28 | 48.98915 | 2.72694 | 4368 ft | 247 kts | 147° |
| 2026-05-05 15:29 | 48.97281 | 2.73344 | 4830 ft | 252 kts | 184° |
| 2026-05-05 15:29 | 48.95596 | 2.72390 | 4975 ft | 272 kts | 219° |
| 2026-05-05 15:29 | 48.94502 | 2.70097 | 4975 ft | 272 kts | 254° |
| 2026-05-05 15:29 | 48.94278 | 2.67297 | 4982 ft | 270 kts | 271° |
| 2026-05-05 15:30 | 48.94210 | 2.64440 | 4974 ft | 271 kts | 269° |
| 2026-05-05 15:30 | 48.94005 | 2.61574 | 4971 ft | 272 kts | 264° |
| 2026-05-05 15:30 | 48.93670 | 2.58742 | 4970 ft | 272 kts | 261° |
| 2026-05-05 15:30 | 48.93263 | 2.55964 | 4971 ft | 273 kts | 259° |
| 2026-05-05 15:31 | 48.92819 | 2.53161 | 4972 ft | 273 kts | 258° |
| 2026-05-05 15:31 | 48.92362 | 2.50353 | 4972 ft | 274 kts | 258° |
| 2026-05-05 15:31 | 48.91929 | 2.47527 | 4972 ft | 273 kts | 261° |
| 2026-05-05 15:31 | 48.91608 | 2.44715 | 4970 ft | 272 kts | 265° |
| 2026-05-05 15:32 | 48.91402 | 2.41858 | 4969 ft | 271 kts | 268° |
| 2026-05-05 15:32 | 48.91246 | 2.39014 | 4967 ft | 271 kts | 268° |
| 2026-05-05 15:32 | 48.91091 | 2.36160 | 4967 ft | 272 kts | 268° |
| 2026-05-05 15:32 | 48.90933 | 2.33283 | 4967 ft | 272 kts | 267° |
| 2026-05-05 15:33 | 48.90774 | 2.30430 | 4968 ft | 272 kts | 267° |
| 2026-05-05 15:33 | 48.90722 | 2.27587 | 4953 ft | 266 kts | 282° |
| 2026-05-05 15:33 | 48.91474 | 2.25227 | 4935 ft | 239 kts | 320° |
| 2026-05-05 15:33 | 48.92782 | 2.23915 | 4958 ft | 217 kts | 336° |
| 2026-05-05 15:34 | 48.94082 | 2.22932 | 4945 ft | 201 kts | 341° |
| 2026-05-05 15:34 | 48.95367 | 2.22656 | 4911 ft | 180 kts | 18° |
| 2026-05-05 15:34 | 48.96386 | 2.23680 | 4958 ft | 178 kts | 54° |
| 2026-05-05 15:34 | 48.97000 | 2.25310 | 4982 ft | 180 kts | 64° |
| 2026-05-05 15:35 | 48.97436 | 2.27078 | 4976 ft | 180 kts | 72° |
| 2026-05-05 15:35 | 48.97701 | 2.28959 | 4736 ft | 185 kts | 78° |
| 2026-05-05 15:35 | 48.97894 | 2.30892 | 4236 ft | 184 kts | 79° |
| 2026-05-05 15:35 | 48.98045 | 2.32815 | 3715 ft | 185 kts | 80° |
| 2026-05-05 15:36 | 48.98163 | 2.34746 | 3235 ft | 183 kts | 80° |
| 2026-05-05 15:36 | 48.98261 | 2.36614 | 2878 ft | 174 kts | 81° |
| 2026-05-05 15:36 | 48.98348 | 2.38372 | 2637 ft | 160 kts | 81° |
| 2026-05-05 15:36 | 48.98428 | 2.39986 | 2426 ft | 149 kts | 80° |
| 2026-05-05 15:37 | 48.98508 | 2.41564 | 2249 ft | 148 kts | 80° |
| 2026-05-05 15:37 | 48.98589 | 2.43133 | 2061 ft | 149 kts | 79° |
| 2026-05-05 15:37 | 48.98669 | 2.44681 | 1873 ft | 149 kts | 81° |
| 2026-05-05 15:37 | 48.98751 | 2.46270 | 1693 ft | 146 kts | 82° |
| 2026-05-05 15:38 | 48.98827 | 2.47787 | 1472 ft | 146 kts | 79° |
| 2026-05-05 15:38 | 48.98908 | 2.49323 | 1292 ft | 147 kts | 80° |
| 2026-05-05 15:38 | 48.98990 | 2.50881 | 1105 ft | 148 kts | 81° |
| 2026-05-05 15:38 | 48.99071 | 2.52443 | 899 ft | 149 kts | 82° |
| 2026-05-05 15:39 | 48.99153 | 2.54011 | 701 ft | 148 kts | 79° |
| 2026-05-05 15:39 | 48.99242 | 2.55571 | 495 ft | 146 kts | 83° |
| 2026-05-05 15:39 | 48.99318 | 2.57093 | 345 ft | 143 kts | 83° |
| 2026-05-05 15:39 | 48.99397 | 2.58505 | 322 ft | 115 kts | 86° |
| 2026-05-05 15:40 | 48.99447 | 2.59455 | 320 ft | 59 kts | 85° |
| 2026-05-05 15:40 | 48.99489 | 2.59857 | 320 ft | 32 kts | 59° |
| 2026-05-05 15:40 | 48.99606 | 2.59973 | 320 ft | 9 kts | 359° |
| 2026-05-05 15:40 | 48.99662 | 2.59974 | 320 ft | 8 kts | 359° |
| 2026-05-05 15:41 | 48.99720 | 2.59969 | 321 ft | 7 kts | 355° |
| 2026-05-05 15:41 | 48.99774 | 2.59963 | 323 ft | 8 kts | 355° |
| 2026-05-05 15:41 | 48.99835 | 2.59957 | 324 ft | 9 kts | 356° |
| 2026-05-05 15:41 | 48.99897 | 2.60000 | 324 ft | 11 kts | 52° |
| 2026-05-05 15:42 | 48.99966 | 2.60074 | 324 ft | 13 kts | 6° |
| 2026-05-05 15:42 | 49.00013 | 2.59980 | 324 ft | 14 kts | 261° |
| 2026-05-05 15:42 | 49.00001 | 2.59818 | 324 ft | 16 kts | 265° |
| 2026-05-05 15:42 | 48.99991 | 2.59632 | 324 ft | 18 kts | 265° |
| 2026-05-05 15:43 | 49.00051 | 2.59506 | 325 ft | 17 kts | 356° |
| 2026-05-05 15:43 | 49.00170 | 2.59491 | 327 ft | 17 kts | 354° |
| 2026-05-05 15:43 | 49.00294 | 2.59477 | 327 ft | 18 kts | 356° |
| 2026-05-05 15:43 | 49.00422 | 2.59465 | 329 ft | 18 kts | 353° |
| 2026-05-05 15:44 | 49.00551 | 2.59444 | 330 ft | 19 kts | 354° |
| 2026-05-05 15:44 | 49.00688 | 2.59427 | 331 ft | 20 kts | 355° |
| 2026-05-05 15:44 | 49.00824 | 2.59410 | 333 ft | 15 kts | 355° |
| 2026-05-05 15:44 | 49.00882 | 2.59330 | 334 ft | 14 kts | 263° |
| 2026-05-05 15:45 | 49.00874 | 2.59167 | 334 ft | 16 kts | 266° |
| 2026-05-05 15:45 | 49.00864 | 2.58987 | 334 ft | 18 kts | 265° |
| 2026-05-05 15:45 | 49.00854 | 2.58787 | 334 ft | 19 kts | 265° |
| 2026-05-05 15:45 | 49.00842 | 2.58574 | 334 ft | 21 kts | 265° |
| 2026-05-05 15:46 | 49.00830 | 2.58346 | 334 ft | 22 kts | 264° |
| 2026-05-05 15:46 | 49.00819 | 2.58152 | 337 ft | 17 kts | 265° |
| 2026-05-05 15:46 | 49.00809 | 2.57967 | 336 ft | 17 kts | 265° |
| 2026-05-05 15:46 | 49.00799 | 2.57782 | 336 ft | 17 kts | 266° |
| 2026-05-05 15:47 | 49.00741 | 2.57669 | 335 ft | 14 kts | 195° |
| 2026-05-05 15:47 | 49.00692 | 2.57661 | 334 ft | 8 kts | 216° |
| 2026-05-05 15:47 | 49.00664 | 2.57593 | 334 ft | 3 kts | 248° |
| 2026-05-05 15:47 | 49.00662 | 2.57586 | 334 ft | 0 kts | 248° |